sensor_id;sensor_type;location;lat;lon;timestamp;P1;durP1;ratioP1;P2;durP2;ratioP2
15831;SDS011;8016;49.928;9.372;2023-05-07T00:00:17;4.30;;;1.97;;
15831;SDS011;8016;49.928;9.372;2023-05-07T00:02:44;2.70;;;2.40;;
15831;SDS011;8016;49.928;9.372;2023-05-07T00:05:10;3.10;;;2.10;;
15831;SDS011;8016;49.928;9.372;2023-05-07T00:07:36;2.90;;;2.20;;
15831;SDS011;8016;49.928;9.372;2023-05-07T00:10:02;3.87;;;2.40;;
15831;SDS011;8016;49.928;9.372;2023-05-07T00:12:28;4.13;;;2.40;;
15831;SDS011;8016;49.928;9.372;2023-05-07T00:14:58;3.70;;;2.20;;
15831;SDS011;8016;49.928;9.372;2023-05-07T00:17:24;2.90;;;1.97;;
15831;SDS011;8016;49.928;9.372;2023-05-07T00:19:50;2.87;;;2.53;;
15831;SDS011;8016;49.928;9.372;2023-05-07T00:22:16;2.37;;;1.93;;
15831;SDS011;8016;49.928;9.372;2023-05-07T00:24:42;3.90;;;2.10;;
15831;SDS011;8016;49.928;9.372;2023-05-07T00:27:08;3.67;;;2.17;;
15831;SDS011;8016;49.928;9.372;2023-05-07T00:29:34;3.10;;;2.00;;
15831;SDS011;8016;49.928;9.372;2023-05-07T00:32:01;2.27;;;2.07;;
15831;SDS011;8016;49.928;9.372;2023-05-07T00:34:27;5.90;;;2.30;;
15831;SDS011;8016;49.928;9.372;2023-05-07T00:36:53;3.00;;;2.10;;
15831;SDS011;8016;49.928;9.372;2023-05-07T00:39:19;5.87;;;2.23;;
15831;SDS011;8016;49.928;9.372;2023-05-07T00:41:45;4.80;;;2.10;;
15831;SDS011;8016;49.928;9.372;2023-05-07T00:44:12;2.30;;;1.90;;
15831;SDS011;8016;49.928;9.372;2023-05-07T00:46:38;4.07;;;2.13;;
15831;SDS011;8016;49.928;9.372;2023-05-07T00:49:04;3.73;;;2.30;;
15831;SDS011;8016;49.928;9.372;2023-05-07T00:51:31;5.77;;;1.90;;
15831;SDS011;8016;49.928;9.372;2023-05-07T00:53:57;2.43;;;2.20;;
15831;SDS011;8016;49.928;9.372;2023-05-07T00:56:23;2.30;;;2.10;;
15831;SDS011;8016;49.928;9.372;2023-05-07T00:58:49;5.20;;;2.13;;
15831;SDS011;8016;49.928;9.372;2023-05-07T01:01:15;2.00;;;1.80;;
15831;SDS011;8016;49.928;9.372;2023-05-07T01:03:41;3.47;;;2.17;;
15831;SDS011;8016;49.928;9.372;2023-05-07T01:06:07;6.17;;;2.20;;
15831;SDS011;8016;49.928;9.372;2023-05-07T01:08:34;2.90;;;2.00;;
15831;SDS011;8016;49.928;9.372;2023-05-07T01:11:00;2.93;;;2.20;;
15831;SDS011;8016;49.928;9.372;2023-05-07T01:13:26;3.90;;;2.57;;
15831;SDS011;8016;49.928;9.372;2023-05-07T01:15:52;2.80;;;2.17;;
15831;SDS011;8016;49.928;9.372;2023-05-07T01:18:19;2.63;;;2.13;;
15831;SDS011;8016;49.928;9.372;2023-05-07T01:20:45;6.27;;;2.00;;
15831;SDS011;8016;49.928;9.372;2023-05-07T01:23:11;3.50;;;2.03;;
15831;SDS011;8016;49.928;9.372;2023-05-07T01:25:37;2.10;;;1.90;;
15831;SDS011;8016;49.928;9.372;2023-05-07T01:28:03;5.10;;;2.00;;
15831;SDS011;8016;49.928;9.372;2023-05-07T01:30:30;3.70;;;2.00;;
15831;SDS011;8016;49.928;9.372;2023-05-07T01:32:58;4.93;;;2.17;;
15831;SDS011;8016;49.928;9.372;2023-05-07T01:35:30;4.50;;;2.10;;
15831;SDS011;8016;49.928;9.372;2023-05-07T01:37:58;2.83;;;1.97;;
15831;SDS011;8016;49.928;9.372;2023-05-07T01:40:24;2.90;;;2.33;;
15831;SDS011;8016;49.928;9.372;2023-05-07T01:42:50;5.03;;;1.83;;
15831;SDS011;8016;49.928;9.372;2023-05-07T01:45:16;3.87;;;2.17;;
15831;SDS011;8016;49.928;9.372;2023-05-07T01:47:42;3.60;;;2.40;;
15831;SDS011;8016;49.928;9.372;2023-05-07T01:50:09;3.50;;;2.03;;
15831;SDS011;8016;49.928;9.372;2023-05-07T01:52:36;3.43;;;2.30;;
15831;SDS011;8016;49.928;9.372;2023-05-07T01:55:02;3.03;;;2.10;;
15831;SDS011;8016;49.928;9.372;2023-05-07T01:57:28;2.47;;;2.17;;
15831;SDS011;8016;49.928;9.372;2023-05-07T01:59:54;2.57;;;2.27;;
15831;SDS011;8016;49.928;9.372;2023-05-07T02:02:20;2.70;;;2.33;;
15831;SDS011;8016;49.928;9.372;2023-05-07T02:04:46;4.60;;;2.20;;
15831;SDS011;8016;49.928;9.372;2023-05-07T02:07:12;2.73;;;1.93;;
15831;SDS011;8016;49.928;9.372;2023-05-07T02:09:38;2.43;;;2.23;;
15831;SDS011;8016;49.928;9.372;2023-05-07T02:12:04;3.90;;;2.40;;
15831;SDS011;8016;49.928;9.372;2023-05-07T02:14:30;2.27;;;2.07;;
15831;SDS011;8016;49.928;9.372;2023-05-07T02:16:56;5.40;;;2.13;;
15831;SDS011;8016;49.928;9.372;2023-05-07T02:19:22;6.10;;;2.50;;
15831;SDS011;8016;49.928;9.372;2023-05-07T02:21:48;2.37;;;2.17;;
15831;SDS011;8016;49.928;9.372;2023-05-07T02:24:14;2.03;;;1.90;;
15831;SDS011;8016;49.928;9.372;2023-05-07T02:26:40;2.77;;;2.00;;
15831;SDS011;8016;49.928;9.372;2023-05-07T02:29:06;3.17;;;2.30;;
15831;SDS011;8016;49.928;9.372;2023-05-07T02:31:32;2.93;;;2.30;;
15831;SDS011;8016;49.928;9.372;2023-05-07T02:34:01;5.27;;;2.30;;
15831;SDS011;8016;49.928;9.372;2023-05-07T02:36:27;2.77;;;1.90;;
15831;SDS011;8016;49.928;9.372;2023-05-07T02:38:53;2.37;;;2.17;;
15831;SDS011;8016;49.928;9.372;2023-05-07T02:41:19;2.33;;;1.90;;
15831;SDS011;8016;49.928;9.372;2023-05-07T02:43:45;2.83;;;2.22;;
15831;SDS011;8016;49.928;9.372;2023-05-07T02:46:11;3.57;;;2.10;;
15831;SDS011;8016;49.928;9.372;2023-05-07T02:48:37;1.93;;;1.73;;
15831;SDS011;8016;49.928;9.372;2023-05-07T02:51:03;3.20;;;2.00;;
15831;SDS011;8016;49.928;9.372;2023-05-07T02:53:30;4.93;;;2.10;;
15831;SDS011;8016;49.928;9.372;2023-05-07T02:55:57;10.40;;;2.57;;
15831;SDS011;8016;49.928;9.372;2023-05-07T02:58:23;3.43;;;2.10;;
15831;SDS011;8016;49.928;9.372;2023-05-07T03:00:49;3.17;;;2.00;;
15831;SDS011;8016;49.928;9.372;2023-05-07T03:03:15;4.63;;;2.63;;
15831;SDS011;8016;49.928;9.372;2023-05-07T03:05:42;2.20;;;2.00;;
15831;SDS011;8016;49.928;9.372;2023-05-07T03:08:08;3.80;;;2.13;;
15831;SDS011;8016;49.928;9.372;2023-05-07T03:10:34;8.23;;;2.40;;
15831;SDS011;8016;49.928;9.372;2023-05-07T03:13:00;2.20;;;2.00;;
15831;SDS011;8016;49.928;9.372;2023-05-07T03:15:26;2.33;;;2.17;;
15831;SDS011;8016;49.928;9.372;2023-05-07T03:17:52;4.03;;;2.10;;
15831;SDS011;8016;49.928;9.372;2023-05-07T03:20:18;4.27;;;2.20;;
15831;SDS011;8016;49.928;9.372;2023-05-07T03:22:44;4.13;;;2.47;;
15831;SDS011;8016;49.928;9.372;2023-05-07T03:25:10;2.23;;;2.03;;
15831;SDS011;8016;49.928;9.372;2023-05-07T03:27:36;3.43;;;2.37;;
15831;SDS011;8016;49.928;9.372;2023-05-07T03:30:03;2.70;;;2.20;;
15831;SDS011;8016;49.928;9.372;2023-05-07T03:32:29;4.53;;;2.20;;
15831;SDS011;8016;49.928;9.372;2023-05-07T03:34:55;3.80;;;2.20;;
15831;SDS011;8016;49.928;9.372;2023-05-07T03:37:21;2.73;;;2.53;;
15831;SDS011;8016;49.928;9.372;2023-05-07T03:39:47;3.80;;;2.53;;
15831;SDS011;8016;49.928;9.372;2023-05-07T03:42:13;4.13;;;2.37;;
15831;SDS011;8016;49.928;9.372;2023-05-07T03:44:39;3.00;;;2.07;;
15831;SDS011;8016;49.928;9.372;2023-05-07T03:47:05;3.47;;;2.20;;
15831;SDS011;8016;49.928;9.372;2023-05-07T03:49:31;3.77;;;3.03;;
15831;SDS011;8016;49.928;9.372;2023-05-07T03:51:57;2.50;;;2.30;;
15831;SDS011;8016;49.928;9.372;2023-05-07T03:54:23;7.90;;;2.57;;
15831;SDS011;8016;49.928;9.372;2023-05-07T03:56:49;3.60;;;2.13;;
15831;SDS011;8016;49.928;9.372;2023-05-07T03:59:15;4.90;;;2.57;;
15831;SDS011;8016;49.928;9.372;2023-05-07T04:01:41;2.77;;;2.33;;
15831;SDS011;8016;49.928;9.372;2023-05-07T04:04:07;6.83;;;2.83;;
15831;SDS011;8016;49.928;9.372;2023-05-07T04:06:33;3.10;;;2.20;;
15831;SDS011;8016;49.928;9.372;2023-05-07T04:08:59;2.60;;;2.40;;
15831;SDS011;8016;49.928;9.372;2023-05-07T04:11:25;2.50;;;2.30;;
15831;SDS011;8016;49.928;9.372;2023-05-07T04:13:51;2.73;;;2.37;;
15831;SDS011;8016;49.928;9.372;2023-05-07T04:16:16;3.00;;;2.37;;
15831;SDS011;8016;49.928;9.372;2023-05-07T04:18:42;3.57;;;2.77;;
15831;SDS011;8016;49.928;9.372;2023-05-07T04:21:15;3.87;;;3.57;;
15831;SDS011;8016;49.928;9.372;2023-05-07T04:23:41;4.17;;;3.80;;
15831;SDS011;8016;49.928;9.372;2023-05-07T04:26:07;4.00;;;3.60;;
15831;SDS011;8016;49.928;9.372;2023-05-07T04:28:33;4.20;;;3.90;;
15831;SDS011;8016;49.928;9.372;2023-05-07T04:30:59;4.27;;;3.60;;
15831;SDS011;8016;49.928;9.372;2023-05-07T04:33:25;6.17;;;4.70;;
15831;SDS011;8016;49.928;9.372;2023-05-07T04:35:51;4.60;;;4.13;;
15831;SDS011;8016;49.928;9.372;2023-05-07T04:38:17;4.20;;;3.80;;
15831;SDS011;8016;49.928;9.372;2023-05-07T04:40:43;5.17;;;4.47;;
15831;SDS011;8016;49.928;9.372;2023-05-07T04:43:09;5.80;;;3.97;;
15831;SDS011;8016;49.928;9.372;2023-05-07T04:45:36;5.20;;;3.90;;
15831;SDS011;8016;49.928;9.372;2023-05-07T04:48:02;4.63;;;4.23;;
15831;SDS011;8016;49.928;9.372;2023-05-07T04:50:28;5.63;;;4.47;;
15831;SDS011;8016;49.928;9.372;2023-05-07T04:52:55;4.63;;;4.23;;
15831;SDS011;8016;49.928;9.372;2023-05-07T04:55:21;5.80;;;4.67;;
15831;SDS011;8016;49.928;9.372;2023-05-07T04:57:47;5.30;;;4.17;;
15831;SDS011;8016;49.928;9.372;2023-05-07T05:00:13;6.40;;;4.67;;
15831;SDS011;8016;49.928;9.372;2023-05-07T05:02:39;4.67;;;4.30;;
15831;SDS011;8016;49.928;9.372;2023-05-07T05:05:06;5.07;;;4.60;;
15831;SDS011;8016;49.928;9.372;2023-05-07T05:07:32;6.60;;;5.30;;
15831;SDS011;8016;49.928;9.372;2023-05-07T05:09:58;5.43;;;4.93;;
15831;SDS011;8016;49.928;9.372;2023-05-07T05:12:24;5.70;;;4.83;;
15831;SDS011;8016;49.928;9.372;2023-05-07T05:14:50;5.37;;;4.30;;
15831;SDS011;8016;49.928;9.372;2023-05-07T05:17:16;5.23;;;4.10;;
15831;SDS011;8016;49.928;9.372;2023-05-07T05:19:42;4.53;;;4.13;;
15831;SDS011;8016;49.928;9.372;2023-05-07T05:22:08;5.17;;;4.67;;
15831;SDS011;8016;49.928;9.372;2023-05-07T05:24:34;4.80;;;4.43;;
15831;SDS011;8016;49.928;9.372;2023-05-07T05:27:00;5.20;;;4.70;;
15831;SDS011;8016;49.928;9.372;2023-05-07T05:29:27;4.73;;;4.33;;
15831;SDS011;8016;49.928;9.372;2023-05-07T05:31:53;5.23;;;4.73;;
15831;SDS011;8016;49.928;9.372;2023-05-07T05:34:18;4.90;;;4.50;;
15831;SDS011;8016;49.928;9.372;2023-05-07T05:36:45;7.37;;;5.10;;
15831;SDS011;8016;49.928;9.372;2023-05-07T05:39:11;5.53;;;4.47;;
15831;SDS011;8016;49.928;9.372;2023-05-07T05:41:37;5.37;;;4.87;;
15831;SDS011;8016;49.928;9.372;2023-05-07T05:44:03;5.53;;;4.73;;
15831;SDS011;8016;49.928;9.372;2023-05-07T05:46:29;6.55;;;5.90;;
15831;SDS011;8016;49.928;9.372;2023-05-07T05:48:55;5.20;;;4.70;;
15831;SDS011;8016;49.928;9.372;2023-05-07T05:51:21;5.17;;;4.53;;
15831;SDS011;8016;49.928;9.372;2023-05-07T05:53:48;5.50;;;5.00;;
15831;SDS011;8016;49.928;9.372;2023-05-07T05:56:14;5.47;;;5.00;;
15831;SDS011;8016;49.928;9.372;2023-05-07T05:58:41;5.73;;;5.23;;
15831;SDS011;8016;49.928;9.372;2023-05-07T06:01:07;5.67;;;5.07;;
15831;SDS011;8016;49.928;9.372;2023-05-07T06:03:33;6.13;;;5.33;;
15831;SDS011;8016;49.928;9.372;2023-05-07T06:05:59;4.93;;;4.60;;
15831;SDS011;8016;49.928;9.372;2023-05-07T06:08:25;6.13;;;5.10;;
15831;SDS011;8016;49.928;9.372;2023-05-07T06:10:51;5.63;;;4.80;;
15831;SDS011;8016;49.928;9.372;2023-05-07T06:13:17;5.20;;;4.70;;
15831;SDS011;8016;49.928;9.372;2023-05-07T06:15:43;5.43;;;4.93;;
15831;SDS011;8016;49.928;9.372;2023-05-07T06:18:09;6.07;;;5.47;;
15831;SDS011;8016;49.928;9.372;2023-05-07T06:20:35;5.83;;;5.23;;
15831;SDS011;8016;49.928;9.372;2023-05-07T06:23:01;6.50;;;5.30;;
15831;SDS011;8016;49.928;9.372;2023-05-07T06:25:27;8.43;;;5.80;;
15831;SDS011;8016;49.928;9.372;2023-05-07T06:27:53;5.50;;;5.00;;
15831;SDS011;8016;49.928;9.372;2023-05-07T06:30:19;5.27;;;4.73;;
15831;SDS011;8016;49.928;9.372;2023-05-07T06:32:45;5.73;;;5.13;;
15831;SDS011;8016;49.928;9.372;2023-05-07T06:35:11;6.10;;;5.60;;
15831;SDS011;8016;49.928;9.372;2023-05-07T06:37:37;6.17;;;5.67;;
15831;SDS011;8016;49.928;9.372;2023-05-07T06:40:05;6.53;;;5.50;;
15831;SDS011;8016;49.928;9.372;2023-05-07T06:42:32;6.37;;;5.87;;
15831;SDS011;8016;49.928;9.372;2023-05-07T06:44:58;7.47;;;5.90;;
15831;SDS011;8016;49.928;9.372;2023-05-07T06:47:24;6.03;;;5.53;;
15831;SDS011;8016;49.928;9.372;2023-05-07T06:49:50;5.40;;;5.00;;
15831;SDS011;8016;49.928;9.372;2023-05-07T06:52:16;6.07;;;5.57;;
15831;SDS011;8016;49.928;9.372;2023-05-07T06:54:42;6.70;;;5.67;;
15831;SDS011;8016;49.928;9.372;2023-05-07T06:57:08;6.43;;;5.80;;
15831;SDS011;8016;49.928;9.372;2023-05-07T06:59:33;6.30;;;5.53;;
15831;SDS011;8016;49.928;9.372;2023-05-07T07:01:59;6.50;;;5.90;;
15831;SDS011;8016;49.928;9.372;2023-05-07T07:04:25;6.50;;;5.90;;
15831;SDS011;8016;49.928;9.372;2023-05-07T07:06:53;6.40;;;5.80;;
15831;SDS011;8016;49.928;9.372;2023-05-07T07:09:19;6.43;;;5.20;;
15831;SDS011;8016;49.928;9.372;2023-05-07T07:11:45;9.63;;;8.23;;
15831;SDS011;8016;49.928;9.372;2023-05-07T07:14:11;6.47;;;5.87;;
15831;SDS011;8016;49.928;9.372;2023-05-07T07:16:38;7.00;;;6.40;;
15831;SDS011;8016;49.928;9.372;2023-05-07T07:19:03;7.83;;;7.07;;
15831;SDS011;8016;49.928;9.372;2023-05-07T07:21:29;9.97;;;8.97;;
15831;SDS011;8016;49.928;9.372;2023-05-07T07:23:56;17.13;;;14.40;;
15831;SDS011;8016;49.928;9.372;2023-05-07T07:26:21;9.87;;;8.80;;
15831;SDS011;8016;49.928;9.372;2023-05-07T07:28:47;7.93;;;6.47;;
15831;SDS011;8016;49.928;9.372;2023-05-07T07:31:13;8.43;;;7.73;;
15831;SDS011;8016;49.928;9.372;2023-05-07T07:33:40;7.27;;;6.70;;
15831;SDS011;8016;49.928;9.372;2023-05-07T07:36:06;6.37;;;5.83;;
15831;SDS011;8016;49.928;9.372;2023-05-07T07:38:32;6.23;;;5.73;;
15831;SDS011;8016;49.928;9.372;2023-05-07T07:40:58;6.77;;;6.10;;
15831;SDS011;8016;49.928;9.372;2023-05-07T07:43:24;5.43;;;5.03;;
15831;SDS011;8016;49.928;9.372;2023-05-07T07:45:51;7.47;;;4.90;;
15831;SDS011;8016;49.928;9.372;2023-05-07T07:48:17;5.67;;;4.97;;
15831;SDS011;8016;49.928;9.372;2023-05-07T07:50:43;5.20;;;4.70;;
15831;SDS011;8016;49.928;9.372;2023-05-07T07:53:09;4.93;;;4.53;;
15831;SDS011;8016;49.928;9.372;2023-05-07T07:55:38;5.77;;;5.27;;
15831;SDS011;8016;49.928;9.372;2023-05-07T07:58:05;6.57;;;5.57;;
15831;SDS011;8016;49.928;9.372;2023-05-07T08:00:31;6.70;;;4.93;;
15831;SDS011;8016;49.928;9.372;2023-05-07T08:02:57;5.90;;;5.30;;
15831;SDS011;8016;49.928;9.372;2023-05-07T08:05:23;5.33;;;4.90;;
15831;SDS011;8016;49.928;9.372;2023-05-07T08:07:49;5.87;;;5.10;;
15831;SDS011;8016;49.928;9.372;2023-05-07T08:10:19;6.67;;;5.03;;
15831;SDS011;8016;49.928;9.372;2023-05-07T08:12:48;5.60;;;5.17;;
15831;SDS011;8016;49.928;9.372;2023-05-07T08:15:14;5.83;;;5.20;;
15831;SDS011;8016;49.928;9.372;2023-05-07T08:17:40;5.87;;;5.37;;
15831;SDS011;8016;49.928;9.372;2023-05-07T08:20:07;5.60;;;5.10;;
15831;SDS011;8016;49.928;9.372;2023-05-07T08:22:36;7.40;;;5.50;;
15831;SDS011;8016;49.928;9.372;2023-05-07T08:25:02;6.90;;;5.30;;
15831;SDS011;8016;49.928;9.372;2023-05-07T08:27:28;5.53;;;5.00;;
15831;SDS011;8016;49.928;9.372;2023-05-07T08:29:54;5.00;;;4.60;;
15831;SDS011;8016;49.928;9.372;2023-05-07T08:32:20;5.77;;;5.27;;
15831;SDS011;8016;49.928;9.372;2023-05-07T08:34:47;5.20;;;4.70;;
15831;SDS011;8016;49.928;9.372;2023-05-07T08:37:13;5.37;;;4.87;;
15831;SDS011;8016;49.928;9.372;2023-05-07T08:39:39;5.67;;;5.17;;
15831;SDS011;8016;49.928;9.372;2023-05-07T08:42:05;5.93;;;5.43;;
15831;SDS011;8016;49.928;9.372;2023-05-07T08:44:33;6.00;;;5.50;;
15831;SDS011;8016;49.928;9.372;2023-05-07T08:47:00;5.73;;;5.23;;
15831;SDS011;8016;49.928;9.372;2023-05-07T08:49:27;5.67;;;4.80;;
15831;SDS011;8016;49.928;9.372;2023-05-07T08:51:53;5.17;;;4.67;;
15831;SDS011;8016;49.928;9.372;2023-05-07T08:54:20;7.20;;;5.73;;
15831;SDS011;8016;49.928;9.372;2023-05-07T08:56:46;5.80;;;5.23;;
15831;SDS011;8016;49.928;9.372;2023-05-07T08:59:12;6.13;;;5.13;;
15831;SDS011;8016;49.928;9.372;2023-05-07T09:01:38;5.80;;;5.30;;
15831;SDS011;8016;49.928;9.372;2023-05-07T09:04:04;5.73;;;5.03;;
15831;SDS011;8016;49.928;9.372;2023-05-07T09:06:31;6.23;;;5.70;;
15831;SDS011;8016;49.928;9.372;2023-05-07T09:08:57;6.97;;;5.27;;
15831;SDS011;8016;49.928;9.372;2023-05-07T09:11:26;5.70;;;5.30;;
15831;SDS011;8016;49.928;9.372;2023-05-07T09:13:54;5.53;;;5.13;;
15831;SDS011;8016;49.928;9.372;2023-05-07T09:16:21;4.83;;;4.43;;
15831;SDS011;8016;49.928;9.372;2023-05-07T09:18:48;5.53;;;5.03;;
15831;SDS011;8016;49.928;9.372;2023-05-07T09:21:16;5.70;;;5.27;;
15831;SDS011;8016;49.928;9.372;2023-05-07T09:23:42;8.60;;;5.80;;
15831;SDS011;8016;49.928;9.372;2023-05-07T09:26:08;6.50;;;6.00;;
15831;SDS011;8016;49.928;9.372;2023-05-07T09:28:40;6.23;;;5.63;;
15831;SDS011;8016;49.928;9.372;2023-05-07T09:31:07;5.43;;;5.00;;
15831;SDS011;8016;49.928;9.372;2023-05-07T09:33:33;6.47;;;5.83;;
15831;SDS011;8016;49.928;9.372;2023-05-07T09:36:02;5.63;;;5.10;;
15831;SDS011;8016;49.928;9.372;2023-05-07T09:38:28;5.60;;;5.10;;
15831;SDS011;8016;49.928;9.372;2023-05-07T09:43:31;5.87;;;5.10;;
15831;SDS011;8016;49.928;9.372;2023-05-07T09:45:58;8.40;;;5.93;;
15831;SDS011;8016;49.928;9.372;2023-05-07T09:48:25;5.33;;;4.90;;
15831;SDS011;8016;49.928;9.372;2023-05-07T09:50:51;5.30;;;4.60;;
15831;SDS011;8016;49.928;9.372;2023-05-07T09:53:23;5.33;;;4.83;;
15831;SDS011;8016;49.928;9.372;2023-05-07T09:55:50;4.93;;;4.53;;
15831;SDS011;8016;49.928;9.372;2023-05-07T09:58:16;5.40;;;4.90;;
15831;SDS011;8016;49.928;9.372;2023-05-07T10:00:43;7.50;;;6.00;;
15831;SDS011;8016;49.928;9.372;2023-05-07T10:03:10;6.37;;;5.30;;
15831;SDS011;8016;49.928;9.372;2023-05-07T10:05:36;10.53;;;5.10;;
15831;SDS011;8016;49.928;9.372;2023-05-07T10:08:03;5.30;;;4.80;;
15831;SDS011;8016;49.928;9.372;2023-05-07T10:10:29;5.73;;;5.23;;
15831;SDS011;8016;49.928;9.372;2023-05-07T10:12:56;5.37;;;4.70;;
15831;SDS011;8016;49.928;9.372;2023-05-07T10:15:22;8.83;;;6.23;;
15831;SDS011;8016;49.928;9.372;2023-05-07T10:17:49;5.73;;;5.23;;
15831;SDS011;8016;49.928;9.372;2023-05-07T10:20:17;8.10;;;5.70;;
15831;SDS011;8016;49.928;9.372;2023-05-07T10:22:43;5.37;;;4.87;;
15831;SDS011;8016;49.928;9.372;2023-05-07T10:25:21;5.53;;;5.03;;
15831;SDS011;8016;49.928;9.372;2023-05-07T10:27:48;5.60;;;5.10;;
15831;SDS011;8016;49.928;9.372;2023-05-07T10:32:50;5.27;;;4.77;;
15831;SDS011;8016;49.928;9.372;2023-05-07T10:35:21;5.20;;;4.80;;
15831;SDS011;8016;49.928;9.372;2023-05-07T10:37:48;5.47;;;4.17;;
15831;SDS011;8016;49.928;9.372;2023-05-07T10:40:14;4.50;;;4.20;;
15831;SDS011;8016;49.928;9.372;2023-05-07T10:45:21;4.80;;;4.40;;
15831;SDS011;8016;49.928;9.372;2023-05-07T10:50:32;4.77;;;4.37;;
15831;SDS011;8016;49.928;9.372;2023-05-07T10:55:43;6.30;;;4.53;;
15831;SDS011;8016;49.928;9.372;2023-05-07T10:58:42;5.40;;;4.53;;
15831;SDS011;8016;49.928;9.372;2023-05-07T11:01:02;4.70;;;4.30;;
15831;SDS011;8016;49.928;9.372;2023-05-07T11:03:28;5.07;;;4.40;;
15831;SDS011;8016;49.928;9.372;2023-05-07T11:11:38;4.20;;;3.90;;
15831;SDS011;8016;49.928;9.372;2023-05-07T11:14:06;5.53;;;4.07;;
15831;SDS011;8016;49.928;9.372;2023-05-07T11:16:32;3.97;;;3.67;;
15831;SDS011;8016;49.928;9.372;2023-05-07T11:19:01;4.73;;;3.93;;
15831;SDS011;8016;49.928;9.372;2023-05-07T11:21:40;3.13;;;2.93;;
15831;SDS011;8016;49.928;9.372;2023-05-07T11:24:07;4.40;;;3.47;;
15831;SDS011;8016;49.928;9.372;2023-05-07T11:29:13;4.10;;;3.67;;
15831;SDS011;8016;49.928;9.372;2023-05-07T11:31:39;4.17;;;3.00;;
15831;SDS011;8016;49.928;9.372;2023-05-07T11:34:05;3.60;;;3.30;;
15831;SDS011;8016;49.928;9.372;2023-05-07T11:36:32;3.50;;;3.20;;
15831;SDS011;8016;49.928;9.372;2023-05-07T11:38:58;4.47;;;4.10;;
15831;SDS011;8016;49.928;9.372;2023-05-07T11:41:34;4.63;;;3.40;;
15831;SDS011;8016;49.928;9.372;2023-05-07T11:44:01;3.60;;;3.30;;
15831;SDS011;8016;49.928;9.372;2023-05-07T11:46:27;3.50;;;3.20;;
15831;SDS011;8016;49.928;9.372;2023-05-07T11:48:54;3.60;;;3.30;;
15831;SDS011;8016;49.928;9.372;2023-05-07T11:51:21;4.57;;;3.43;;
15831;SDS011;8016;49.928;9.372;2023-05-07T11:53:47;5.10;;;3.50;;
15831;SDS011;8016;49.928;9.372;2023-05-07T11:56:14;4.63;;;2.80;;
15831;SDS011;8016;49.928;9.372;2023-05-07T11:58:41;3.30;;;3.00;;
15831;SDS011;8016;49.928;9.372;2023-05-07T12:01:07;3.37;;;2.90;;
15831;SDS011;8016;49.928;9.372;2023-05-07T12:03:34;3.57;;;3.20;;
15831;SDS011;8016;49.928;9.372;2023-05-07T12:06:01;2.60;;;2.40;;
15831;SDS011;8016;49.928;9.372;2023-05-07T12:08:27;2.63;;;2.37;;
15831;SDS011;8016;49.928;9.372;2023-05-07T12:10:53;3.33;;;2.37;;
15831;SDS011;8016;49.928;9.372;2023-05-07T12:15:45;2.60;;;2.40;;
15831;SDS011;8016;49.928;9.372;2023-05-07T12:18:11;7.07;;;2.47;;
15831;SDS011;8016;49.928;9.372;2023-05-07T12:20:38;3.60;;;2.70;;
15831;SDS011;8016;49.928;9.372;2023-05-07T12:23:04;2.30;;;2.10;;
15831;SDS011;8016;49.928;9.372;2023-05-07T12:25:37;2.53;;;2.33;;
15831;SDS011;8016;49.928;9.372;2023-05-07T12:28:03;2.33;;;2.13;;
15831;SDS011;8016;49.928;9.372;2023-05-07T12:30:30;3.07;;;2.47;;
15831;SDS011;8016;49.928;9.372;2023-05-07T12:32:57;2.83;;;2.20;;
15831;SDS011;8016;49.928;9.372;2023-05-07T12:35:27;2.40;;;2.10;;
15831;SDS011;8016;49.928;9.372;2023-05-07T12:37:56;4.73;;;2.43;;
15831;SDS011;8016;49.928;9.372;2023-05-07T12:40:24;2.57;;;2.13;;
15831;SDS011;8016;49.928;9.372;2023-05-07T12:42:52;2.83;;;2.53;;
15831;SDS011;8016;49.928;9.372;2023-05-07T12:45:21;3.13;;;2.20;;
15831;SDS011;8016;49.928;9.372;2023-05-07T12:47:47;3.73;;;2.37;;
15831;SDS011;8016;49.928;9.372;2023-05-07T12:50:14;4.73;;;2.40;;
15831;SDS011;8016;49.928;9.372;2023-05-07T12:52:40;3.10;;;2.50;;
15831;SDS011;8016;49.928;9.372;2023-05-07T12:55:06;3.33;;;2.60;;
15831;SDS011;8016;49.928;9.372;2023-05-07T12:57:39;2.63;;;2.30;;
15831;SDS011;8016;49.928;9.372;2023-05-07T13:00:05;3.23;;;2.37;;
15831;SDS011;8016;49.928;9.372;2023-05-07T13:02:42;2.83;;;2.10;;
15831;SDS011;8016;49.928;9.372;2023-05-07T13:05:11;2.63;;;2.30;;
15831;SDS011;8016;49.928;9.372;2023-05-07T13:07:37;2.70;;;2.50;;
15831;SDS011;8016;49.928;9.372;2023-05-07T13:10:03;2.73;;;2.43;;
15831;SDS011;8016;49.928;9.372;2023-05-07T13:12:30;2.93;;;2.50;;
15831;SDS011;8016;49.928;9.372;2023-05-07T13:14:56;2.37;;;2.17;;
15831;SDS011;8016;49.928;9.372;2023-05-07T13:17:22;3.03;;;2.73;;
15831;SDS011;8016;49.928;9.372;2023-05-07T13:19:48;2.87;;;2.53;;
15831;SDS011;8016;49.928;9.372;2023-05-07T13:22:14;2.70;;;2.50;;
15831;SDS011;8016;49.928;9.372;2023-05-07T13:24:40;2.97;;;2.67;;
15831;SDS011;8016;49.928;9.372;2023-05-07T13:27:07;2.83;;;2.53;;
15831;SDS011;8016;49.928;9.372;2023-05-07T13:29:33;2.87;;;2.60;;
15831;SDS011;8016;49.928;9.372;2023-05-07T13:32:00;2.43;;;2.00;;
15831;SDS011;8016;49.928;9.372;2023-05-07T13:34:26;2.80;;;2.47;;
15831;SDS011;8016;49.928;9.372;2023-05-07T13:36:52;2.70;;;2.50;;
15831;SDS011;8016;49.928;9.372;2023-05-07T13:39:18;3.10;;;2.30;;
15831;SDS011;8016;49.928;9.372;2023-05-07T13:41:44;2.40;;;2.20;;
15831;SDS011;8016;49.928;9.372;2023-05-07T13:44:10;5.20;;;2.70;;
15831;SDS011;8016;49.928;9.372;2023-05-07T13:46:36;4.20;;;2.47;;
15831;SDS011;8016;49.928;9.372;2023-05-07T13:49:02;4.43;;;2.27;;
15831;SDS011;8016;49.928;9.372;2023-05-07T13:51:28;2.63;;;2.43;;
15831;SDS011;8016;49.928;9.372;2023-05-07T13:53:54;2.50;;;2.30;;
15831;SDS011;8016;49.928;9.372;2023-05-07T13:56:20;2.57;;;2.30;;
15831;SDS011;8016;49.928;9.372;2023-05-07T13:58:49;2.60;;;2.40;;
15831;SDS011;8016;49.928;9.372;2023-05-07T14:01:15;2.83;;;2.63;;
15831;SDS011;8016;49.928;9.372;2023-05-07T14:03:41;3.40;;;2.30;;
15831;SDS011;8016;49.928;9.372;2023-05-07T14:06:07;2.47;;;2.13;;
15831;SDS011;8016;49.928;9.372;2023-05-07T14:08:33;2.50;;;2.30;;
15831;SDS011;8016;49.928;9.372;2023-05-07T14:10:59;3.90;;;2.73;;
15831;SDS011;8016;49.928;9.372;2023-05-07T14:13:25;2.70;;;2.30;;
15831;SDS011;8016;49.928;9.372;2023-05-07T14:15:51;4.33;;;2.60;;
15831;SDS011;8016;49.928;9.372;2023-05-07T14:18:17;3.63;;;2.53;;
15831;SDS011;8016;49.928;9.372;2023-05-07T14:20:43;2.90;;;2.30;;
15831;SDS011;8016;49.928;9.372;2023-05-07T14:23:11;4.17;;;2.73;;
15831;SDS011;8016;49.928;9.372;2023-05-07T14:25:37;3.67;;;2.43;;
15831;SDS011;8016;49.928;9.372;2023-05-07T14:28:03;3.33;;;2.43;;
15831;SDS011;8016;49.928;9.372;2023-05-07T14:30:29;3.33;;;2.57;;
15831;SDS011;8016;49.928;9.372;2023-05-07T14:32:55;2.87;;;2.17;;
15831;SDS011;8016;49.928;9.372;2023-05-07T14:35:21;2.90;;;2.33;;
15831;SDS011;8016;49.928;9.372;2023-05-07T14:37:47;2.80;;;2.60;;
15831;SDS011;8016;49.928;9.372;2023-05-07T14:40:12;2.63;;;2.40;;
15831;SDS011;8016;49.928;9.372;2023-05-07T14:42:39;2.47;;;2.27;;
15831;SDS011;8016;49.928;9.372;2023-05-07T14:45:05;3.47;;;2.80;;
15831;SDS011;8016;49.928;9.372;2023-05-07T14:47:31;2.87;;;2.67;;
15831;SDS011;8016;49.928;9.372;2023-05-07T14:49:57;2.97;;;2.70;;
15831;SDS011;8016;49.928;9.372;2023-05-07T14:52:25;3.00;;;2.70;;
15831;SDS011;8016;49.928;9.372;2023-05-07T14:54:51;2.80;;;2.60;;
15831;SDS011;8016;49.928;9.372;2023-05-07T14:57:17;2.90;;;2.63;;
15831;SDS011;8016;49.928;9.372;2023-05-07T14:59:44;3.53;;;2.77;;
15831;SDS011;8016;49.928;9.372;2023-05-07T15:02:11;5.15;;;3.97;;
15831;SDS011;8016;49.928;9.372;2023-05-07T15:04:37;6.77;;;3.30;;
15831;SDS011;8016;49.928;9.372;2023-05-07T15:07:05;3.77;;;2.93;;
15831;SDS011;8016;49.928;9.372;2023-05-07T15:09:31;4.50;;;2.63;;
15831;SDS011;8016;49.928;9.372;2023-05-07T15:11:57;3.67;;;3.10;;
15831;SDS011;8016;49.928;9.372;2023-05-07T15:14:23;6.53;;;5.60;;
15831;SDS011;8016;49.928;9.372;2023-05-07T15:16:49;3.27;;;3.07;;
15831;SDS011;8016;49.928;9.372;2023-05-07T15:19:15;4.17;;;3.80;;